createdAt,value
2023-01-11T00:00:05.097Z,97699.50
2023-01-11T00:02:31.668Z,97703.16
2023-01-11T00:04:58.212Z,97702.34
2023-01-11T00:07:24.719Z,97705.53
2023-01-11T00:09:51.225Z,97705.88
2023-01-11T00:12:17.861Z,97707.25
2023-01-11T00:14:44.335Z,97717.94
2023-01-11T00:17:10.831Z,97710.28
2023-01-11T00:19:37.336Z,97708.94
2023-01-11T00:22:03.859Z,97720.00
2023-01-11T00:24:30.373Z,97722.41
2023-01-11T00:26:56.803Z,97729.41
2023-01-11T00:29:23.299Z,97719.03
2023-01-11T00:31:49.745Z,97721.91
2023-01-11T00:34:16.202Z,97722.75
2023-01-11T00:36:46.020Z,97704.88
2023-01-11T00:39:12.625Z,97698.34
2023-01-11T00:41:39.084Z,97701.38
2023-01-11T00:44:05.800Z,97685.78
2023-01-11T00:46:33.427Z,97685.63
2023-01-11T00:48:59.821Z,97689.13
2023-01-11T00:51:26.324Z,97704.06
2023-01-11T00:53:52.802Z,97707.38
2023-01-11T00:56:19.273Z,97704.72
2023-01-11T00:58:45.759Z,97695.22
2023-01-11T01:01:12.206Z,97698.06
2023-01-11T01:03:38.650Z,97696.41
2023-01-11T01:06:05.154Z,97689.38
2023-01-11T01:08:31.641Z,97683.38
2023-01-11T01:10:58.162Z,97684.38
2023-01-11T01:13:24.554Z,97690.72
2023-01-11T01:15:51.016Z,97687.41
2023-01-11T01:18:17.596Z,97674.38
2023-01-11T01:20:44.081Z,97682.41
2023-01-11T01:23:19.628Z,97675.38
2023-01-11T01:25:46.123Z,97694.75
2023-01-11T01:28:12.907Z,97685.22
2023-01-11T01:30:41.851Z,97693.09
2023-01-11T01:33:08.201Z,97690.44
2023-01-11T01:38:25.188Z,97684.41
2023-01-11T01:40:51.591Z,97675.38
2023-01-11T01:43:17.992Z,97688.91
2023-01-11T01:45:48.067Z,97689.09
2023-01-11T01:48:16.529Z,97682.44
2023-01-11T01:50:42.931Z,97677.25
2023-01-11T01:53:09.334Z,97661.22
2023-01-11T01:55:35.747Z,97660.88
2023-01-11T01:58:02.242Z,97654.00
2023-01-11T02:00:28.771Z,97651.34
2023-01-11T02:02:55.320Z,97654.53
2023-01-11T02:08:15.997Z,97659.72
2023-01-11T02:10:42.550Z,97664.06
2023-01-11T02:13:09.074Z,97660.34
2023-01-11T02:15:35.545Z,97658.88
2023-01-11T02:18:02.002Z,97655.19
2023-01-11T02:20:28.428Z,97652.50
2023-01-11T02:22:54.906Z,97659.72
2023-01-11T02:25:21.243Z,97666.06
2023-01-11T02:27:47.692Z,97667.72
2023-01-11T02:30:14.209Z,97668.44
2023-01-11T02:32:40.687Z,97671.59
2023-01-11T02:35:07.226Z,97670.94
2023-01-11T02:37:33.679Z,97673.97
2023-01-11T02:40:00.174Z,97662.94
2023-01-11T02:42:26.726Z,97657.06
2023-01-11T02:44:53.235Z,97659.38
2023-01-11T02:47:19.677Z,97651.53
2023-01-11T02:49:46.312Z,97651.38
2023-01-11T02:52:12.845Z,97632.66
2023-01-11T02:54:39.309Z,97633.50
2023-01-11T02:57:05.854Z,97645.38
2023-01-11T03:02:12.647Z,97630.66
2023-01-11T03:04:39.101Z,97618.13
2023-01-11T03:07:05.633Z,97634.00
2023-01-11T03:09:32.087Z,97631.69
2023-01-11T03:11:58.677Z,97626.34
2023-01-11T03:14:25.131Z,97627.34
2023-01-11T03:19:31.928Z,97607.16
2023-01-11T03:21:58.368Z,97598.47
2023-01-11T03:24:24.883Z,97586.13
2023-01-11T03:26:51.405Z,97577.44
2023-01-11T03:29:17.860Z,97575.59
2023-01-11T03:31:44.837Z,97571.56
2023-01-11T03:34:11.242Z,97567.59
2023-01-11T03:39:21.039Z,97570.09
2023-01-11T03:44:27.788Z,97569.59
2023-01-11T03:49:34.553Z,97577.97
2023-01-11T03:52:01.014Z,97582.63
2023-01-11T03:54:27.458Z,97569.44
2023-01-11T03:56:53.942Z,97574.59
2023-01-11T03:59:20.407Z,97561.25
2023-01-11T04:01:52.585Z,97561.25
2023-01-11T04:04:19.168Z,97560.06
2023-01-11T04:06:45.764Z,97563.25
2023-01-11T04:09:12.285Z,97564.25
2023-01-11T04:11:38.728Z,97557.41
2023-01-11T04:16:45.526Z,97548.25
2023-01-11T04:19:12.015Z,97555.09
2023-01-11T04:21:38.511Z,97551.25
2023-01-11T04:24:04.968Z,97560.63
2023-01-11T04:26:31.461Z,97550.63
2023-01-11T04:28:57.857Z,97535.41
2023-01-11T04:31:24.477Z,97517.84
2023-01-11T04:36:31.278Z,97511.22
2023-01-11T04:38:57.760Z,97511.53
2023-01-11T04:41:24.400Z,97495.47
2023-01-11T04:43:51.064Z,97487.47
2023-01-11T04:46:17.566Z,97500.81
2023-01-11T04:48:44.064Z,97506.00
2023-01-11T04:51:10.614Z,97514.81
2023-01-11T04:53:37.086Z,97510.47
2023-01-11T04:56:03.514Z,97517.16
2023-01-11T04:58:30.026Z,97517.16
2023-01-11T05:00:58.736Z,97513.00
2023-01-11T05:03:25.608Z,97523.19
2023-01-11T05:05:52.096Z,97533.91
2023-01-11T05:08:18.536Z,97532.41
2023-01-11T05:10:45.049Z,97522.72
2023-01-11T05:13:11.494Z,97534.47
2023-01-11T05:18:28.439Z,97528.03
2023-01-11T05:20:54.940Z,97519.53
2023-01-11T05:23:29.531Z,97526.09
2023-01-11T05:26:16.425Z,97537.31
2023-01-11T05:28:42.813Z,97541.50
2023-01-11T05:31:09.307Z,97540.16
2023-01-11T05:33:35.889Z,97545.50
2023-01-11T05:36:02.334Z,97541.81
2023-01-11T05:38:28.678Z,97541.97
2023-01-11T05:40:55.209Z,97542.81
2023-01-11T05:43:21.659Z,97540.13
2023-01-11T05:45:48.246Z,97530.78
2023-01-11T05:48:14.982Z,97528.13
2023-01-11T05:50:44.017Z,97526.59
2023-01-11T05:53:13.365Z,97530.59
2023-01-11T05:55:39.851Z,97523.75
2023-01-11T05:58:06.345Z,97522.06
2023-01-11T06:00:32.802Z,97512.38
2023-01-11T06:02:59.438Z,97520.41
2023-01-11T06:05:26.056Z,97508.22
2023-01-11T06:07:52.534Z,97502.78
2023-01-11T06:10:19.015Z,97502.41
2023-01-11T06:12:45.474Z,97506.72
2023-01-11T06:15:11.959Z,97508.06
2023-01-11T06:17:38.546Z,97516.06
2023-01-11T06:20:07.936Z,97515.81
2023-01-11T06:22:34.406Z,97512.16
2023-01-11T06:25:00.949Z,97500.94
2023-01-11T06:27:27.326Z,97505.41
2023-01-11T06:30:01.214Z,97498.41
2023-01-11T06:32:27.598Z,97491.13
2023-01-11T06:37:39.523Z,97495.59
2023-01-11T06:40:05.929Z,97505.81
2023-01-11T06:42:32.370Z,97499.28
2023-01-11T06:45:02.808Z,97502.13
2023-01-11T06:47:29.229Z,97513.47
2023-01-11T06:49:55.621Z,97509.97
2023-01-11T06:52:22.311Z,97512.91
2023-01-11T06:54:48.675Z,97523.56
2023-01-11T06:57:15.419Z,97528.69
2023-01-11T06:59:41.956Z,97530.53
2023-01-11T07:02:08.670Z,97534.72
2023-01-11T07:04:35.018Z,97522.44
2023-01-11T07:07:01.660Z,97522.28
2023-01-11T07:14:53.279Z,97528.53
2023-01-11T07:17:22.105Z,97538.66
2023-01-11T07:19:48.486Z,97551.72
2023-01-11T07:22:14.947Z,97558.53
2023-01-11T07:24:41.389Z,97555.22
2023-01-11T07:29:58.157Z,97561.88
2023-01-11T07:32:24.689Z,97557.28
2023-01-11T07:34:51.144Z,97552.56
2023-01-11T07:37:28.953Z,97554.00
2023-01-11T07:39:55.831Z,97556.63
2023-01-11T07:42:22.247Z,97560.44
2023-01-11T07:47:39.424Z,97557.25
2023-01-11T07:50:05.900Z,97566.41
2023-01-11T07:52:32.395Z,97565.94
2023-01-11T07:55:02.251Z,97545.97
2023-01-11T07:57:28.792Z,97540.22
2023-01-11T07:59:55.602Z,97522.16
2023-01-11T08:02:23.225Z,97515.41
2023-01-11T08:04:49.823Z,97526.78
2023-01-11T08:07:16.364Z,97520.69
2023-01-11T08:09:42.839Z,97524.91
2023-01-11T08:12:09.284Z,97540.59
2023-01-11T08:14:35.699Z,97528.72
2023-01-11T08:17:02.083Z,97531.13
2023-01-11T08:19:28.563Z,97528.44
2023-01-11T08:21:57.070Z,97525.28
2023-01-11T08:24:23.416Z,97532.50
2023-01-11T08:29:41.480Z,97538.13
2023-01-11T08:32:08.067Z,97528.09
2023-01-11T08:34:34.710Z,97524.09
2023-01-11T08:37:01.195Z,97516.91
2023-01-11T08:39:27.646Z,97524.88
2023-01-11T08:41:54.060Z,97514.63
2023-01-11T08:44:33.321Z,97525.31
2023-01-11T08:47:00.446Z,97534.38
2023-01-11T08:49:26.930Z,97536.22
2023-01-11T08:51:53.454Z,97539.91
2023-01-11T08:54:19.999Z,97547.59
2023-01-11T08:56:46.479Z,97556.44
2023-01-11T08:59:12.806Z,97537.41
2023-01-11T09:01:39.292Z,97521.38
2023-01-11T09:04:19.203Z,97509.00
2023-01-11T09:06:50.046Z,97505.66
2023-01-11T09:09:16.472Z,97502.88
2023-01-11T09:11:42.854Z,97499.50
2023-01-11T09:14:09.302Z,97504.69
2023-01-11T09:16:35.652Z,97511.16
2023-01-11T09:19:02.054Z,97529.16
2023-01-11T09:21:28.515Z,97538.31
2023-01-11T09:23:54.898Z,97542.16
2023-01-11T09:26:21.235Z,97524.13
2023-01-11T09:28:47.771Z,97519.78
2023-01-11T09:31:14.294Z,97506.41
2023-01-11T09:33:45.731Z,97504.50
2023-01-11T09:36:12.091Z,97485.63
2023-01-11T09:38:38.648Z,97487.50
2023-01-11T09:41:04.984Z,97476.34
2023-01-11T09:43:32.908Z,97481.78
2023-01-11T09:46:17.810Z,97490.09
2023-01-11T09:48:46.336Z,97493.22
2023-01-11T09:51:15.082Z,97497.59
2023-01-11T09:53:41.499Z,97511.13
2023-01-11T09:56:09.621Z,97526.31
2023-01-11T09:58:36.129Z,97541.19
2023-01-11T10:01:02.604Z,97551.84
2023-01-11T10:03:30.690Z,97535.56
2023-01-11T10:05:57.077Z,97536.03
2023-01-11T10:18:29.104Z,97546.38
2023-01-11T10:18:37.723Z,97548.75
2023-01-11T10:19:41.986Z,97543.31
2023-01-11T10:22:11.576Z,97541.94
2023-01-11T10:24:41.567Z,97535.69
2023-01-11T10:30:01.972Z,97514.53
2023-01-11T10:32:28.397Z,97503.38
2023-01-11T10:34:55.585Z,97488.66
2023-01-11T10:37:22.300Z,97481.88
2023-01-11T10:39:49.766Z,97485.13
2023-01-11T10:42:16.745Z,97490.72
2023-01-11T10:44:45.380Z,97501.78
2023-01-11T10:47:11.786Z,97509.97
2023-01-11T10:49:38.192Z,97523.56
2023-01-11T10:52:05.551Z,97524.19
2023-01-11T10:54:32.039Z,97528.13
2023-01-11T10:57:01.737Z,97523.97
2023-01-11T10:59:30.131Z,97529.88
2023-01-11T11:01:56.986Z,97536.19
2023-01-11T11:04:23.497Z,97526.97
2023-01-11T11:06:49.937Z,97523.31
2023-01-11T11:09:16.355Z,97514.75
2023-01-11T11:11:42.919Z,97506.13
2023-01-11T11:14:09.366Z,97497.88
2023-01-11T11:16:35.822Z,97483.44
2023-01-11T11:19:04.659Z,97478.22
2023-01-11T11:21:31.126Z,97476.66
2023-01-11T11:23:57.597Z,97486.81
2023-01-11T11:26:24.035Z,97479.63
2023-01-11T11:28:50.499Z,97479.16
2023-01-11T11:31:16.879Z,97487.28
2023-01-11T11:33:43.299Z,97473.34
2023-01-11T11:36:09.687Z,97484.91
2023-01-11T11:38:36.208Z,97486.56
2023-01-11T11:41:02.580Z,97479.38
2023-01-11T11:43:28.953Z,97489.72
2023-01-11T11:45:55.426Z,97486.75
2023-01-11T11:48:21.868Z,97488.59
2023-01-11T11:50:48.235Z,97498.56
2023-01-11T11:53:14.618Z,97509.56
2023-01-11T11:55:41.044Z,97495.81
2023-01-11T11:58:07.435Z,97486.78
2023-01-11T12:03:17.315Z,97486.84
2023-01-11T12:05:43.821Z,97504.59
2023-01-11T12:08:12.194Z,97508.16
2023-01-11T12:10:38.550Z,97511.34
2023-01-11T12:13:04.988Z,97515.09
2023-01-11T12:15:31.422Z,97517.16
2023-01-11T12:17:57.799Z,97521.94
2023-01-11T12:23:11.831Z,97510.56
2023-01-11T12:25:38.171Z,97516.34
2023-01-11T12:28:04.575Z,97520.19
2023-01-11T12:30:30.958Z,97515.78
2023-01-11T12:32:57.504Z,97537.16
2023-01-11T12:35:23.877Z,97533.88
2023-01-11T12:37:50.281Z,97535.91
2023-01-11T12:40:16.711Z,97536.34
2023-01-11T12:42:43.302Z,97528.44
2023-01-11T12:45:09.714Z,97526.72
2023-01-11T12:47:38.385Z,97511.31
2023-01-11T12:52:46.295Z,97505.47
2023-01-11T12:55:15.120Z,97501.06
2023-01-11T12:57:42.511Z,97504.09
2023-01-11T13:00:08.860Z,97505.09
2023-01-11T13:02:35.287Z,97514.06
2023-01-11T13:05:01.801Z,97519.06
2023-01-11T13:07:28.160Z,97537.41
2023-01-11T13:09:54.536Z,97534.94
2023-01-11T13:12:23.853Z,97532.44
2023-01-11T13:14:50.224Z,97527.75
2023-01-11T13:17:16.545Z,97513.50
2023-01-11T13:19:43.024Z,97499.31
2023-01-11T13:22:09.394Z,97504.53
2023-01-11T13:24:35.794Z,97504.84
2023-01-11T13:27:02.571Z,97515.91
2023-01-11T13:29:29.119Z,97523.59
2023-01-11T13:31:55.519Z,97522.72
2023-01-11T13:34:24.182Z,97523.59
2023-01-11T13:36:50.612Z,97528.28
2023-01-11T13:39:17.062Z,97527.44
2023-01-11T13:41:43.392Z,97514.06
2023-01-11T13:47:00.372Z,97524.78
2023-01-11T13:49:26.736Z,97534.00
2023-01-11T13:51:53.075Z,97534.34
2023-01-11T13:54:19.440Z,97528.44
2023-01-11T13:56:45.834Z,97536.13
2023-01-11T13:59:12.190Z,97537.78
2023-01-11T14:01:38.698Z,97552.00
2023-01-11T14:04:05.554Z,97560.75
2023-01-11T14:06:31.933Z,97558.31
2023-01-11T14:08:58.305Z,97565.91
2023-01-11T14:11:24.669Z,97571.75
2023-01-11T14:13:51.155Z,97556.44
2023-01-11T14:16:17.688Z,97550.44
2023-01-11T14:18:44.135Z,97556.16
2023-01-11T14:21:12.963Z,97553.53
2023-01-11T14:23:40.875Z,97569.22
2023-01-11T14:26:12.217Z,97585.59
2023-01-11T14:28:38.568Z,97583.22
2023-01-11T14:31:05.014Z,97569.22
2023-01-11T14:33:31.515Z,97583.97
2023-01-11T14:36:01.422Z,97591.44
2023-01-11T14:38:27.837Z,97581.09
2023-01-11T14:40:54.456Z,97578.06
2023-01-11T14:43:20.819Z,97587.75
2023-01-11T14:45:47.303Z,97590.63
2023-01-11T14:48:13.762Z,97583.97
2023-01-11T14:50:40.432Z,97607.22
2023-01-11T14:53:06.903Z,97615.41
2023-01-11T14:55:33.474Z,97619.56
2023-01-11T14:57:59.887Z,97616.56
2023-01-11T15:00:26.260Z,97628.91
2023-01-11T15:02:53.574Z,97642.94
2023-01-11T15:05:20.179Z,97651.22
2023-01-11T15:07:46.516Z,97640.25
2023-01-11T15:10:13.021Z,97646.91
2023-01-11T15:12:39.443Z,97647.88
2023-01-11T15:15:05.973Z,97624.09
2023-01-11T15:17:32.600Z,97654.53
2023-01-11T15:20:00.053Z,97679.81
2023-01-11T15:22:26.434Z,97684.53
2023-01-11T15:24:53.930Z,97725.44
2023-01-11T15:27:25.135Z,97736.16
2023-01-11T15:29:51.592Z,97728.31
2023-01-11T15:32:18.017Z,97765.91
2023-01-11T15:34:52.527Z,97778.94
2023-01-11T15:37:18.882Z,97773.25
2023-01-11T15:39:45.385Z,97772.91
2023-01-11T15:42:11.862Z,97747.00
2023-01-11T15:44:38.525Z,97761.22
2023-01-11T15:47:05.010Z,97754.00
2023-01-11T15:49:31.614Z,97737.16
2023-01-11T15:51:58.324Z,97728.31
2023-01-11T15:54:24.801Z,97731.81
2023-01-11T15:56:51.167Z,97736.34
2023-01-11T15:59:17.682Z,97744.91
2023-01-11T16:01:44.375Z,97737.03
2023-01-11T16:04:10.895Z,97736.84
2023-01-11T16:06:37.493Z,97730.16
2023-01-11T16:09:03.991Z,97726.94
2023-01-11T16:11:31.263Z,97711.84
2023-01-11T16:13:57.605Z,97710.78
2023-01-11T16:16:24.086Z,97711.19
2023-01-11T16:21:34.500Z,97727.91
2023-01-11T16:24:00.998Z,97733.97
2023-01-11T16:26:27.430Z,97743.66
2023-01-11T16:28:53.837Z,97751.69
2023-01-11T16:31:21.060Z,97742.53
2023-01-11T16:33:49.779Z,97740.13
2023-01-11T16:36:16.393Z,97728.25
2023-01-11T16:38:42.790Z,97737.97
2023-01-11T16:41:09.141Z,97754.56
2023-01-11T16:43:35.529Z,97763.72
2023-01-11T16:46:05.518Z,97767.88
2023-01-11T16:51:16.315Z,97780.47
2023-01-11T16:53:49.446Z,97762.41
2023-01-11T16:56:15.881Z,97760.56
2023-01-11T16:58:42.547Z,97766.13
2023-01-11T17:01:09.991Z,97764.97
2023-01-11T17:03:36.486Z,97773.03
2023-01-11T17:06:02.931Z,97779.94
2023-01-11T17:08:29.379Z,97767.84
2023-01-11T17:10:55.904Z,97772.19
2023-01-11T17:13:22.303Z,97774.41
2023-01-11T17:15:48.732Z,97784.59
2023-01-11T17:18:15.249Z,97786.91
2023-01-11T17:20:41.625Z,97781.22
2023-01-11T17:23:08.024Z,97754.47
2023-01-11T17:25:44.391Z,97744.44
2023-01-11T17:28:11.161Z,97756.97
2023-01-11T17:30:37.571Z,97771.03
2023-01-11T17:33:04.239Z,97755.50
2023-01-11T17:35:30.857Z,97756.66
2023-01-11T17:37:59.629Z,97771.41
2023-01-11T17:40:28.658Z,97779.59
2023-01-11T17:42:56.789Z,97790.63
2023-01-11T17:45:25.823Z,97817.69
2023-01-11T17:47:58.800Z,97812.03
2023-01-11T17:50:25.344Z,97818.03
2023-01-11T17:52:55.415Z,97818.19
2023-01-11T17:55:23.988Z,97798.53
2023-01-11T17:57:53.941Z,97807.31
2023-01-11T18:00:24.787Z,97823.88
2023-01-11T18:02:51.289Z,97830.75
2023-01-11T18:05:17.716Z,97846.28
2023-01-11T18:07:44.184Z,97855.31
2023-01-11T18:10:10.645Z,97867.19
2023-01-11T18:12:37.524Z,97868.53
2023-01-11T18:15:04.018Z,97862.16
2023-01-11T18:17:30.364Z,97860.31
2023-01-11T18:19:56.720Z,97853.81
2023-01-11T18:22:24.234Z,97854.31
2023-01-11T18:24:50.824Z,97847.47
2023-01-11T18:27:17.271Z,97836.13
2023-01-11T18:29:43.743Z,97838.09
2023-01-11T18:32:16.782Z,97836.75
2023-01-11T18:34:43.173Z,97850.13
2023-01-11T18:37:09.524Z,97857.97
2023-01-11T18:39:35.863Z,97866.19
2023-01-11T18:42:03.103Z,97860.81
2023-01-11T18:44:29.516Z,97862.34
2023-01-11T18:46:55.954Z,97867.16
2023-01-11T18:49:24.077Z,97871.50
2023-01-11T18:51:53.015Z,97868.50
2023-01-11T18:54:19.454Z,97865.47
2023-01-11T18:56:45.956Z,97857.81
2023-01-11T18:59:12.733Z,97845.88
2023-01-11T19:01:52.631Z,97847.72
2023-01-11T19:04:25.539Z,97855.00
2023-01-11T19:06:52.110Z,97864.84
2023-01-11T19:09:18.571Z,97876.41
2023-01-11T19:11:47.647Z,97870.03
2023-01-11T19:14:14.552Z,97856.00
2023-01-11T19:16:41.088Z,97866.00
2023-01-11T19:19:07.471Z,97863.09
2023-01-11T19:21:36.372Z,97874.94
2023-01-11T19:24:02.859Z,97880.03
2023-01-11T19:26:29.335Z,97875.69
2023-01-11T19:28:56.078Z,97886.22
2023-01-11T19:31:22.703Z,97894.13
2023-01-11T19:33:49.385Z,97904.84
2023-01-11T19:36:15.878Z,97913.91
2023-01-11T19:38:42.288Z,97917.94
2023-01-11T19:41:08.715Z,97929.63
2023-01-11T19:43:35.219Z,97929.63
2023-01-11T19:46:01.725Z,97929.28
2023-01-11T19:48:28.136Z,97918.91
2023-01-11T19:50:54.657Z,97908.75
2023-01-11T19:53:21.060Z,97893.03
2023-01-11T19:55:47.603Z,97893.19
2023-01-11T19:58:14.035Z,97878.47
2023-01-11T20:00:40.497Z,97896.19
2023-01-11T20:03:06.987Z,97894.00
2023-01-11T20:05:33.545Z,97893.81
2023-01-11T20:08:00.110Z,97895.66
2023-01-11T20:10:26.563Z,97887.31
2023-01-11T20:12:53.048Z,97885.53
2023-01-11T20:15:19.432Z,97887.84
2023-01-11T20:17:45.881Z,97875.31
2023-01-11T20:20:14.986Z,97882.50
2023-01-11T20:22:41.513Z,97882.31
2023-01-11T20:25:07.935Z,97875.94
2023-01-11T20:27:41.921Z,97885.81
2023-01-11T20:30:08.381Z,97895.53
2023-01-11T20:32:41.880Z,97899.03
2023-01-11T20:35:09.798Z,97911.94
2023-01-11T20:37:37.077Z,97918.28
2023-01-11T20:40:03.536Z,97906.59
2023-01-11T20:42:29.988Z,97902.41
2023-01-11T20:44:56.725Z,97895.53
2023-01-11T20:47:23.258Z,97898.09
2023-01-11T20:49:49.686Z,97912.31
2023-01-11T20:52:16.129Z,97919.69
2023-01-11T20:54:45.013Z,97919.00
2023-01-11T20:57:11.487Z,97924.00
2023-01-11T20:59:40.001Z,97920.50
2023-01-11T21:02:06.441Z,97913.66
2023-01-11T21:04:33.019Z,97904.28
2023-01-11T21:06:59.441Z,97912.50
2023-01-11T21:09:25.911Z,97909.81
2023-01-11T21:11:52.359Z,97906.16
2023-01-11T21:14:18.841Z,97922.22
2023-01-11T21:16:45.583Z,97940.59
2023-01-11T21:19:12.045Z,97937.59
2023-01-11T21:21:38.602Z,97941.75
2023-01-11T21:24:05.077Z,97948.63
2023-01-11T21:26:31.502Z,97946.47
2023-01-11T21:28:57.909Z,97956.00
2023-01-11T21:31:24.425Z,97957.63
2023-01-11T21:33:50.983Z,97963.50
2023-01-11T21:36:17.441Z,97972.19
2023-01-11T21:38:48.344Z,97981.72
2023-01-11T21:41:15.914Z,97993.94
2023-01-11T21:43:42.422Z,97994.59
2023-01-11T21:46:11.441Z,98005.13
2023-01-11T21:48:37.879Z,98006.81
2023-01-11T21:51:04.366Z,98012.84
2023-01-11T21:53:30.961Z,98007.16
2023-01-11T21:56:00.375Z,97998.59
2023-01-11T21:58:26.835Z,97988.22
2023-01-11T22:00:53.421Z,97983.19
2023-01-11T22:03:22.701Z,97980.16
2023-01-11T22:05:49.273Z,97979.66
2023-01-11T22:08:15.815Z,97992.03
2023-01-11T22:10:42.324Z,97987.72
2023-01-11T22:13:08.843Z,97986.03
2023-01-11T22:15:35.249Z,97998.56
2023-01-11T22:18:01.781Z,98007.28
2023-01-11T22:20:28.274Z,98001.09
2023-01-11T22:22:54.705Z,98000.94
2023-01-11T22:25:21.141Z,97995.22
2023-01-11T22:27:47.624Z,97994.06
2023-01-11T22:30:16.963Z,97988.72
2023-01-11T22:32:43.464Z,97990.41
2023-01-11T22:37:50.187Z,97984.34
2023-01-11T22:40:16.588Z,97989.88
2023-01-11T22:42:46.093Z,97990.53
2023-01-11T22:45:12.557Z,97985.69
2023-01-11T22:47:38.937Z,97984.16
2023-01-11T22:50:05.363Z,97979.44
2023-01-11T22:52:31.867Z,97972.22
2023-01-11T22:54:58.311Z,97976.38
2023-01-11T22:57:24.746Z,97982.91
2023-01-11T22:59:51.219Z,97998.31
2023-01-11T23:02:17.722Z,98006.47
2023-01-11T23:04:44.199Z,98005.13
2023-01-11T23:07:11.227Z,97991.72
2023-01-11T23:09:37.744Z,97998.56
2023-01-11T23:12:04.258Z,98006.31
2023-01-11T23:14:30.762Z,97992.03
2023-01-11T23:16:57.274Z,97997.41
2023-01-11T23:19:23.789Z,98007.41
2023-01-11T23:24:31.276Z,98025.19
2023-01-11T23:26:57.786Z,98011.78
2023-01-11T23:29:36.017Z,98011.09
2023-01-11T23:32:02.569Z,98019.97
2023-01-11T23:34:29.067Z,98007.28
2023-01-11T23:36:55.555Z,98010.50
2023-01-11T23:39:22.054Z,98023.41
2023-01-11T23:41:48.626Z,98017.72
2023-01-11T23:44:15.049Z,98021.03
2023-01-11T23:46:41.470Z,98025.41
2023-01-11T23:49:07.798Z,98017.84
2023-01-11T23:51:34.135Z,98014.03
2023-01-11T23:54:00.475Z,97996.28
2023-01-11T23:56:26.839Z,97993.56
